Time;durP1;ratioP1;P1;durP2;ratioP2;P2;SDS_P1;SDS_P2;PMS_P1;PMS_P2;Temp;Humidity;BMP_temperature;BMP_pressure;BME280_temperature;BME280_humidity;BME280_pressure;Samples;Min_cycle;Max_cycle;Signal;HPM_P1;HPM_P2
2022/07/30 00:00:29;;;;;;;0.95;0.40;;;22.90;53.00;;;;;;6238635;28;20089;-68
2022/07/30 00:03:31;;;;;;;0.35;0.30;;;22.90;53.00;;;;;;6235816;28;20274;-68
2022/07/30 00:06:32;;;;;;;0.30;0.30;;;22.90;53.00;;;;;;6216453;28;20583;-67
2022/07/30 00:09:32;;;;;;;0.38;0.38;;;22.90;53.00;;;;;;6229380;28;20025;-68
2022/07/30 00:12:33;;;;;;;0.38;0.38;;;22.90;53.00;;;;;;6240938;28;20484;-68
2022/07/30 00:15:34;;;;;;;0.40;0.35;;;22.90;53.00;;;;;;6220309;28;20546;-68
2022/07/30 00:18:34;;;;;;;0.55;0.38;;;22.90;53.00;;;;;;6219746;28;20033;-68
2022/07/30 00:21:35;;;;;;;0.40;0.30;;;22.90;53.00;;;;;;6241300;28;20100;-68
2022/07/30 00:24:36;;;;;;;0.52;0.43;;;22.90;53.00;;;;;;6219642;28;20046;-68
2022/07/30 00:27:36;;;;;;;0.30;0.30;;;22.90;53.00;;;;;;6191870;28;20030;-68
2022/07/30 00:30:39;;;;;;;0.50;0.40;;;22.90;53.00;;;;;;6229257;28;20103;-68
2022/07/30 00:33:40;;;;;;;0.55;0.40;;;22.90;53.00;;;;;;6226171;28;20072;-67
2022/07/30 00:36:40;;;;;;;0.30;0.30;;;22.90;53.00;;;;;;6215573;28;20511;-67
2022/07/30 00:39:41;;;;;;;0.32;0.32;;;22.90;53.00;;;;;;6225937;28;20091;-67
2022/07/30 00:42:44;;;;;;;0.30;0.30;;;22.90;53.10;;;;;;6239703;28;20060;-67
2022/07/30 00:45:45;;;;;;;0.30;0.30;;;22.90;53.00;;;;;;6222842;28;20393;-67
2022/07/30 00:48:46;;;;;;;0.40;0.40;;;22.90;53.10;;;;;;6216682;28;20026;-67
2022/07/30 00:51:47;;;;;;;0.30;0.30;;;22.90;53.10;;;;;;6240386;28;20053;-67
2022/07/30 00:54:47;;;;;;;0.68;0.38;;;22.90;53.10;;;;;;6233954;28;20508;-68
2022/07/30 00:57:48;;;;;;;0.30;0.30;;;22.90;53.10;;;;;;6239864;28;20018;-68
2022/07/30 01:00:49;;;;;;;0.35;0.35;;;22.90;53.10;;;;;;6224327;28;20042;-67
2022/07/30 01:03:49;;;;;;;0.40;0.40;;;22.90;53.10;;;;;;6215736;28;20472;-68
2022/07/30 01:06:50;;;;;;;0.40;0.40;;;22.90;53.80;;;;;;6254839;28;20129;-68
2022/07/30 01:09:51;;;;;;;0.30;0.30;;;22.90;53.10;;;;;;6233039;28;20030;-67
2022/07/30 01:12:53;;;;;;;0.40;0.40;;;22.90;53.10;;;;;;6215344;28;20026;-68
2022/07/30 01:15:54;;;;;;;0.30;0.30;;;22.90;53.10;;;;;;6228875;28;20033;-67
2022/07/30 01:22:25;;;;;;;0.38;0.38;;;22.90;53.10;;;;;;6215645;28;20058;-68
2022/07/30 01:25:58;;;;;;;0.30;0.30;;;22.90;53.20;;;;;;6215216;28;20032;-68
2022/07/30 01:29:00;;;;;;;1.17;0.47;;;22.90;53.10;;;;;;6213921;28;20030;-67
2022/07/30 01:32:02;;;;;;;0.43;0.40;;;22.90;53.20;;;;;;6229564;28;20026;-67
2022/07/30 01:35:05;;;;;;;0.40;0.40;;;22.90;53.20;;;;;;6215998;28;20029;-67
2022/07/30 01:38:08;;;;;;;0.40;0.40;;;22.90;53.20;;;;;;6217389;28;20051;-67
2022/07/30 01:41:11;;;;;;;0.30;0.30;;;22.90;53.20;;;;;;6233775;28;20056;-67
2022/07/30 01:44:13;;;;;;;0.50;0.50;;;22.90;53.20;;;;;;6244024;28;20079;-67
2022/07/30 01:47:16;;;;;;;0.55;0.50;;;22.90;53.20;;;;;;6222653;28;20156;-68
2022/07/30 01:50:18;;;;;;;0.40;0.32;;;22.90;53.20;;;;;;6224798;28;20021;-68
2022/07/30 01:53:22;;;;;;;0.30;0.30;;;22.90;53.20;;;;;;6243847;28;20112;-67
2022/07/30 01:56:24;;;;;;;0.63;0.57;;;22.90;53.90;;;;;;6221761;28;20515;-68
2022/07/30 01:59:28;;;;;;;0.40;0.30;;;22.90;53.20;;;;;;6243814;28;20116;-68
2022/07/30 02:02:29;;;;;;;0.30;0.30;;;22.90;53.20;;;;;;6220908;28;20061;-68
2022/07/30 02:05:33;;;;;;;0.40;0.40;;;22.90;53.30;;;;;;6224314;28;20050;-67
2022/07/30 02:08:47;;;;;;;0.30;0.30;;;22.80;53.20;;;;;;6243123;28;20026;-68
2022/07/30 02:15:09;;;;;;;0.40;0.40;;;22.90;53.20;;;;;;6219280;28;20572;-67
2022/07/30 02:18:14;;;;;;;0.50;0.40;;;22.80;53.20;;;;;;6243806;28;20110;-67
2022/07/30 02:21:18;;;;;;;0.50;0.40;;;22.90;53.30;;;;;;6235099;28;20033;-67
2022/07/30 02:24:27;;;;;;;0.43;0.40;;;22.90;53.30;;;;;;6218397;28;20058;-67
2022/07/30 02:27:31;;;;;;;0.43;0.43;;;22.80;53.20;;;;;;6236446;28;20033;-68
2022/07/30 02:30:36;;;;;;;0.30;0.30;;;22.90;53.30;;;;;;6241128;28;20068;-67
2022/07/30 02:33:40;;;;;;;0.40;0.40;;;22.90;53.90;;;;;;6218432;28;20026;-67
2022/07/30 02:36:43;;;;;;;0.30;0.30;;;22.90;53.30;;;;;;6218962;28;20072;-68
2022/07/30 02:39:44;;;;;;;0.45;0.40;;;22.80;53.20;;;;;;6217869;28;20033;-67
2022/07/30 02:42:47;;;;;;;0.43;0.40;;;22.80;53.20;;;;;;6236829;28;20033;-66
2022/07/30 02:45:48;;;;;;;0.28;0.28;;;22.80;53.20;;;;;;6241458;28;20029;-68
2022/07/30 02:48:50;;;;;;;0.52;0.40;;;22.90;53.30;;;;;;6217792;28;20041;-68
2022/07/30 02:51:51;;;;;;;0.30;0.30;;;22.80;53.20;;;;;;6226538;28;20026;-67
2022/07/30 02:54:54;;;;;;;0.50;0.50;;;22.80;53.20;;;;;;6218821;28;20058;-67
2022/07/30 02:57:56;;;;;;;0.30;0.30;;;22.80;53.20;;;;;;6228791;28;20017;-67
2022/07/30 03:00:58;;;;;;;0.50;0.40;;;22.90;53.30;;;;;;6241750;28;20037;-67
2022/07/30 03:04:00;;;;;;;0.52;0.40;;;22.80;53.30;;;;;;6218565;28;20247;-68
2022/07/30 03:07:01;;;;;;;0.30;0.30;;;22.80;53.20;;;;;;6226643;28;20025;-67
2022/07/30 03:10:03;;;;;;;0.30;0.30;;;22.90;53.40;;;;;;6240828;28;20028;-67
2022/07/30 03:13:06;;;;;;;0.40;0.40;;;22.80;53.30;;;;;;6225236;28;20018;-67
2022/07/30 03:16:09;;;;;;;0.32;0.32;;;22.80;53.30;;;;;;6218314;28;20030;-68
2022/07/30 03:19:11;;;;;;;0.40;0.40;;;22.80;53.30;;;;;;6241839;28;20037;-68
2022/07/30 03:22:15;;;;;;;0.45;0.45;;;22.90;53.40;;;;;;6233967;28;20476;-68
2022/07/30 03:25:21;;;;;;;0.40;0.40;;;22.80;53.30;;;;;;6214208;28;20109;-68
2022/07/30 03:28:24;;;;;;;0.50;0.50;;;22.90;53.40;;;;;;6234089;28;20087;-67
2022/07/30 03:31:25;;;;;;;0.35;0.35;;;22.80;53.40;;;;;;6236845;28;20025;-68
2022/07/30 03:34:26;;;;;;;0.82;0.43;;;22.90;53.40;;;;;;6217495;28;20021;-67
2022/07/30 03:37:28;;;;;;;0.40;0.40;;;22.80;53.30;;;;;;6226235;28;20079;-68
2022/07/30 03:40:29;;;;;;;0.50;0.40;;;22.80;53.30;;;;;;6239995;28;20166;-68
2022/07/30 03:43:30;;;;;;;0.52;0.50;;;22.80;54.00;;;;;;6225367;28;20696;-67
2022/07/30 03:46:33;;;;;;;0.38;0.38;;;22.80;53.40;;;;;;6215722;28;20030;-68
2022/07/30 03:49:34;;;;;;;0.45;0.45;;;22.80;53.40;;;;;;6240931;28;20132;-68
2022/07/30 03:52:39;;;;;;;0.40;0.40;;;22.80;53.40;;;;;;6233988;28;20607;-67
2022/07/30 03:55:41;;;;;;;0.55;0.40;;;22.80;53.40;;;;;;6216652;28;20025;-67
2022/07/30 03:58:41;;;;;;;0.57;0.52;;;22.80;53.30;;;;;;6232091;28;20045;-67
2022/07/30 04:01:42;;;;;;;0.40;0.40;;;22.80;53.40;;;;;;6240346;28;20044;-66
2022/07/30 04:04:43;;;;;;;0.70;0.70;;;22.80;53.40;;;;;;6217748;28;20029;-67
2022/07/30 04:07:44;;;;;;;0.40;0.40;;;22.80;53.40;;;;;;6223177;28;20025;-68
2022/07/30 04:10:45;;;;;;;0.50;0.43;;;22.80;53.30;;;;;;6240005;28;20476;-66
2022/07/30 04:13:46;;;;;;;0.40;0.40;;;22.80;53.30;;;;;;6225099;28;20150;-67
2022/07/30 04:17:02;;;;;;;1.77;0.43;;;22.80;53.40;;;;;;6209321;28;20021;-67
2022/07/30 04:20:11;;;;;;;0.85;0.40;;;22.80;53.40;;;;;;6239870;28;20033;-66
2022/07/30 04:23:13;;;;;;;0.45;0.45;;;22.80;54.10;;;;;;6232606;28;20069;-68
2022/07/30 04:26:15;;;;;;;0.40;0.40;;;22.80;53.40;;;;;;6216333;28;20161;-67
2022/07/30 04:29:17;;;;;;;0.32;0.32;;;22.80;53.40;;;;;;6232317;28;20032;-68
2022/07/30 04:32:18;;;;;;;0.60;0.40;;;22.80;53.40;;;;;;6229571;28;20018;-67
2022/07/30 04:35:34;;;;;;;0.52;0.30;;;22.80;53.40;;;;;;6216176;28;20025;-68
2022/07/30 04:38:35;;;;;;;0.40;0.40;;;22.80;53.40;;;;;;6224990;28;20372;-68
2022/07/30 04:41:36;;;;;;;0.65;0.40;;;22.80;53.40;;;;;;6240468;28;20389;-68
2022/07/30 04:44:37;;;;;;;0.60;0.60;;;22.80;53.40;;;;;;6222962;28;20246;-68
2022/07/30 04:47:38;;;;;;;0.40;0.40;;;22.80;53.40;;;;;;6216006;28;20026;-68
2022/07/30 04:50:42;;;;;;;0.50;0.50;;;22.80;53.40;;;;;;6239475;28;20060;-67
2022/07/30 04:53:43;;;;;;;0.75;0.50;;;22.80;54.10;;;;;;6232408;28;20034;-67
2022/07/30 04:56:47;;;;;;;0.47;0.30;;;22.80;53.50;;;;;;6215987;28;20033;-67
2022/07/30 05:00:38;;;;;;;0.40;0.40;;;22.80;53.40;;;;;;6233328;28;20431;-66
2022/07/30 05:03:39;;;;;;;0.52;0.40;;;22.80;53.50;;;;;;6222062;28;20495;-68
2022/07/30 05:06:41;;;;;;;0.40;0.40;;;22.80;53.50;;;;;;6240554;28;20397;-68
2022/07/30 05:09:42;;;;;;;0.50;0.50;;;22.80;53.50;;;;;;6225725;28;20431;-67
2022/07/30 05:12:43;;;;;;;0.30;0.30;;;22.80;53.50;;;;;;6216065;28;20030;-68
2022/07/30 05:15:43;;;;;;;0.60;0.55;;;22.80;53.50;;;;;;6241950;28;20029;-68
2022/07/30 05:18:44;;;;;;;0.40;0.40;;;22.80;53.40;;;;;;6238734;28;20519;-68
2022/07/30 05:21:45;;;;;;;0.43;0.43;;;22.80;53.40;;;;;;6218877;28;20034;-68
2022/07/30 05:24:46;;;;;;;0.50;0.45;;;22.80;53.50;;;;;;6218726;28;20181;-67
2022/07/30 05:27:46;;;;;;;0.30;0.30;;;22.80;53.40;;;;;;6221031;28;20112;-67
2022/07/30 05:30:48;;;;;;;0.32;0.30;;;22.80;53.50;;;;;;6218698;28;20046;-68
2022/07/30 05:33:48;;;;;;;0.30;0.30;;;22.80;53.50;;;;;;6220288;28;20071;-68
2022/07/30 05:36:49;;;;;;;1.08;0.60;;;22.80;53.50;;;;;;6219472;28;20431;-68
2022/07/30 05:39:50;;;;;;;0.40;0.40;;;22.80;53.50;;;;;;6231074;28;20183;-68
2022/07/30 05:42:51;;;;;;;0.43;0.40;;;22.80;53.50;;;;;;6244289;28;20502;-68
2022/07/30 05:45:51;;;;;;;0.60;0.45;;;22.80;53.50;;;;;;6226558;28;20068;-68
2022/07/30 05:48:52;;;;;;;0.40;0.40;;;22.80;53.50;;;;;;6236591;28;20483;-68
2022/07/30 05:51:52;;;;;;;0.30;0.30;;;22.80;53.50;;;;;;6244445;28;20531;-68
2022/07/30 05:54:53;;;;;;;0.30;0.30;;;22.80;53.50;;;;;;6237831;28;20021;-67
2022/07/30 05:57:54;;;;;;;0.45;0.40;;;22.80;53.50;;;;;;6244222;28;20033;-68
2022/07/30 06:00:54;;;;;;;0.40;0.30;;;22.80;53.50;;;;;;6227078;28;20033;-67
2022/07/30 06:03:55;;;;;;;0.50;0.30;;;22.80;53.50;;;;;;6219699;28;20473;-68
2022/07/30 06:06:56;;;;;;;0.40;0.20;;;22.80;53.50;;;;;;6243163;28;20080;-68
2022/07/30 06:10:00;;;;;;;0.30;0.30;;;22.80;53.60;;;;;;6236389;28;20030;-68
2022/07/30 06:13:01;;;;;;;0.35;0.32;;;22.80;53.60;;;;;;6219230;28;20037;-68
2022/07/30 06:16:01;;;;;;;0.43;0.43;;;22.80;53.50;;;;;;6234603;28;20048;-68
2022/07/30 06:19:02;;;;;;;0.75;0.45;;;22.80;53.60;;;;;;6243435;28;20032;-68
2022/07/30 06:22:03;;;;;;;0.50;0.50;;;22.80;53.60;;;;;;6217841;28;20054;-68
2022/07/30 06:25:05;;;;;;;0.28;0.28;;;22.80;53.60;;;;;;6224768;28;20479;-68
2022/07/30 06:28:06;;;;;;;0.60;0.47;;;22.80;53.60;;;;;;6243643;28;20029;-68
2022/07/30 06:31:07;;;;;;;0.40;0.40;;;22.80;53.60;;;;;;6228015;28;20290;-68
2022/07/30 06:34:07;;;;;;;0.70;0.40;;;22.80;53.60;;;;;;6218605;28;20112;-68
2022/07/30 06:37:08;;;;;;;0.45;0.40;;;22.80;53.60;;;;;;6217060;28;20115;-68
2022/07/30 06:40:09;;;;;;;0.30;0.30;;;22.80;53.70;;;;;;6222442;28;20369;-68
2022/07/30 06:43:10;;;;;;;0.40;0.40;;;22.80;53.60;;;;;;6242917;28;20026;-68
2022/07/30 06:46:10;;;;;;;0.45;0.45;;;22.80;53.60;;;;;;6229546;28;20491;-68
2022/07/30 06:49:11;;;;;;;0.45;0.45;;;22.80;53.60;;;;;;6218560;28;20310;-67
2022/07/30 06:52:12;;;;;;;0.30;0.30;;;22.80;53.60;;;;;;6238974;28;20053;-67
2022/07/30 06:55:12;;;;;;;0.40;0.30;;;22.80;53.60;;;;;;6220093;28;20059;-68
2022/07/30 06:58:13;;;;;;;0.50;0.40;;;22.80;53.60;;;;;;6242570;28;20040;-68
2022/07/30 07:01:14;;;;;;;0.75;0.40;;;22.80;53.60;;;;;;6230942;28;20068;-68
2022/07/30 07:04:14;;;;;;;0.50;0.40;;;22.80;53.60;;;;;;6217779;28;20472;-68
2022/07/30 07:07:15;;;;;;;0.40;0.40;;;22.80;53.70;;;;;;6237001;28;20028;-68
2022/07/30 07:10:15;;;;;;;0.57;0.55;;;22.80;53.70;;;;;;6240033;28;20526;-66
2022/07/30 07:13:16;;;;;;;0.30;0.30;;;22.80;53.60;;;;;;6217705;28;20029;-68
2022/07/30 07:16:20;;;;;;;0.30;0.30;;;22.80;53.70;;;;;;6227423;28;20521;-68
2022/07/30 07:19:21;;;;;;;0.38;0.38;;;22.80;53.70;;;;;;6242487;28;20037;-68
2022/07/30 07:22:21;;;;;;;0.40;0.40;;;22.80;53.70;;;;;;6223756;28;20046;-68
2022/07/30 07:25:22;;;;;;;0.30;0.30;;;22.80;53.70;;;;;;6217256;28;20447;-67
2022/07/30 07:28:23;;;;;;;0.30;0.30;;;22.80;53.70;;;;;;6217307;28;20141;-67
2022/07/30 07:31:24;;;;;;;0.40;0.40;;;22.80;53.70;;;;;;6222108;28;20022;-68
2022/07/30 07:34:25;;;;;;;0.35;0.35;;;22.80;53.70;;;;;;6217471;28;20033;-68
2022/07/30 07:37:26;;;;;;;0.30;0.30;;;22.80;53.70;;;;;;6216890;28;20133;-67
2022/07/30 07:40:27;;;;;;;0.50;0.40;;;22.80;53.70;;;;;;6217310;28;20061;-67
2022/07/30 07:43:28;;;;;;;0.40;0.40;;;22.80;53.70;;;;;;6241215;28;20017;-68
2022/07/30 07:46:28;;;;;;;0.30;0.30;;;22.80;53.70;;;;;;6233620;28;20025;-68
2022/07/30 07:49:29;;;;;;;0.40;0.40;;;22.80;53.70;;;;;;6215842;28;20049;-66
2022/07/30 07:52:29;;;;;;;0.28;0.28;;;22.80;53.80;;;;;;6231412;28;20053;-68
2022/07/30 07:55:30;;;;;;;0.38;0.38;;;22.80;53.70;;;;;;6206828;28;20061;-68
2022/07/30 07:58:31;;;;;;;0.82;0.38;;;22.80;53.70;;;;;;6237111;28;20041;-68
2022/07/30 08:01:31;;;;;;;0.95;0.40;;;22.80;53.70;;;;;;6235567;28;20111;-68
2022/07/30 08:04:32;;;;;;;0.30;0.30;;;22.80;53.70;;;;;;6216609;28;20421;-66
2022/07/30 08:07:33;;;;;;;0.60;0.52;;;22.80;53.70;;;;;;6230004;28;20056;-68
2022/07/30 08:10:33;;;;;;;0.50;0.45;;;22.80;53.70;;;;;;6241004;28;20060;-68
2022/07/30 08:13:34;;;;;;;0.43;0.30;;;22.80;53.70;;;;;;6220178;28;20032;-68
2022/07/30 08:16:35;;;;;;;0.40;0.40;;;22.80;53.70;;;;;;6220378;28;20017;-67
2022/07/30 08:19:35;;;;;;;0.65;0.40;;;22.80;53.70;;;;;;6240899;28;20061;-68
2022/07/30 08:22:36;;;;;;;0.30;0.30;;;22.80;53.70;;;;;;6228979;28;20133;-67
2022/07/30 08:25:37;;;;;;;0.40;0.40;;;22.80;53.70;;;;;;6215651;28;20024;-66
2022/07/30 08:28:37;;;;;;;0.30;0.30;;;22.80;53.70;;;;;;6216038;28;20319;-68
2022/07/30 08:31:38;;;;;;;0.47;0.40;;;22.80;53.70;;;;;;6215871;28;20441;-67
2022/07/30 08:34:39;;;;;;;0.40;0.40;;;22.80;53.70;;;;;;6216349;28;20452;-67
2022/07/30 08:37:41;;;;;;;0.32;0.32;;;22.80;53.70;;;;;;6226015;28;20025;-67
2022/07/30 08:40:41;;;;;;;0.40;0.30;;;22.80;53.70;;;;;;6240649;28;20037;-68
2022/07/30 08:43:46;;;;;;;0.35;0.32;;;22.80;53.70;;;;;;6222307;28;20085;-68
2022/07/30 08:46:47;;;;;;;0.40;0.40;;;22.80;53.70;;;;;;6216051;28;20121;-67
2022/07/30 08:49:48;;;;;;;0.60;0.32;;;22.80;53.70;;;;;;6240986;28;20692;-68
2022/07/30 08:52:49;;;;;;;0.30;0.30;;;22.80;53.70;;;;;;6230913;28;20022;-67
2022/07/30 08:55:50;;;;;;;0.25;0.25;;;22.80;53.70;;;;;;6215727;28;20484;-67
2022/07/30 08:58:51;;;;;;;0.60;0.30;;;22.80;53.70;;;;;;6232231;28;20048;-67
2022/07/30 09:01:51;;;;;;;0.55;0.30;;;22.80;53.70;;;;;;6240018;28;20025;-67
2022/07/30 09:04:53;;;;;;;0.40;0.40;;;22.80;53.80;;;;;;6215853;28;20115;-67
2022/07/30 09:07:54;;;;;;;0.35;0.30;;;22.80;53.70;;;;;;6223118;28;20427;-67
2022/07/30 09:10:55;;;;;;;0.30;0.30;;;22.80;53.80;;;;;;6240051;28;20017;-66
2022/07/30 09:14:10;;;;;;;0.25;0.20;;;22.80;53.70;;;;;;6224074;28;20026;-67
2022/07/30 09:17:11;;;;;;;0.30;0.30;;;22.80;53.80;;;;;;6215951;28;20048;-67
2022/07/30 09:20:12;;;;;;;0.40;0.32;;;22.80;53.80;;;;;;6240628;28;20038;-67
2022/07/30 09:23:12;;;;;;;0.43;0.40;;;22.80;53.80;;;;;;6231257;28;20050;-66
2022/07/30 09:26:13;;;;;;;0.32;0.32;;;22.80;53.80;;;;;;6214777;28;20723;-68
2022/07/30 09:29:32;;;;;;;0.38;0.38;;;22.80;53.70;;;;;;6215285;28;20022;-67
2022/07/30 09:32:51;;;;;;;0.57;0.40;;;22.80;53.80;;;;;;6214885;28;20028;-67
2022/07/30 09:35:55;;;;;;;0.30;0.30;;;22.80;53.80;;;;;;6215241;28;20250;-67
2022/07/30 09:38:56;;;;;;;0.43;0.40;;;22.80;53.80;;;;;;6227470;28;20090;-67
2022/07/30 09:41:57;;;;;;;0.57;0.47;;;22.80;53.80;;;;;;6239653;28;20029;-67
2022/07/30 09:45:06;;;;;;;0.32;0.32;;;22.80;53.80;;;;;;6218816;28;20504;-68
2022/07/30 09:48:22;;;;;;;0.40;0.40;;;22.80;53.80;;;;;;6218263;28;20021;-68
2022/07/30 09:51:37;;;;;;;0.40;0.40;;;22.80;53.80;;;;;;6238604;28;20439;-66
2022/07/30 09:54:47;;;;;;;0.50;0.50;;;22.80;53.80;;;;;;6223329;28;20594;-67
2022/07/30 09:57:56;;;;;;;0.38;0.38;;;22.80;53.80;;;;;;6215925;28;20045;-68
2022/07/30 10:01:00;;;;;;;0.40;0.40;;;22.80;53.80;;;;;;6243787;28;20663;-68
2022/07/30 10:04:01;;;;;;;0.30;0.30;;;22.80;53.80;;;;;;6233348;28;20057;-68
2022/07/30 10:07:02;;;;;;;0.40;0.40;;;22.80;53.80;;;;;;6219674;28;20025;-67
2022/07/30 10:10:03;;;;;;;0.90;0.68;;;22.80;53.80;;;;;;6236837;28;20514;-68
2022/07/30 10:13:06;;;;;;;0.45;0.30;;;22.80;53.80;;;;;;6243052;28;20067;-68
2022/07/30 10:16:08;;;;;;;0.63;0.30;;;22.80;53.80;;;;;;6221649;28;20388;-67
2022/07/30 10:19:08;;;;;;;0.40;0.40;;;22.80;53.80;;;;;;6227342;28;20033;-68
2022/07/30 10:22:09;;;;;;;0.40;0.40;;;22.80;53.80;;;;;;6243553;28;20077;-68
2022/07/30 10:25:10;;;;;;;0.20;0.20;;;22.80;53.80;;;;;;6227324;28;20435;-67
2022/07/30 10:28:11;;;;;;;0.50;0.50;;;22.80;53.80;;;;;;6219311;28;20040;-67
2022/07/30 10:31:13;;;;;;;0.40;0.32;;;22.80;53.80;;;;;;6217349;28;20507;-68
2022/07/30 10:34:16;;;;;;;0.40;0.40;;;22.80;53.80;;;;;;6218487;28;20026;-67
2022/07/30 10:37:18;;;;;;;0.30;0.30;;;22.80;53.80;;;;;;6218589;28;20088;-68
2022/07/30 10:40:40;;;;;;;0.30;0.30;;;22.80;53.80;;;;;;6234631;28;20319;-68
2022/07/30 10:43:53;;;;;;;0.40;0.40;;;22.80;53.80;;;;;;6242229;28;20029;-67
2022/07/30 10:47:02;;;;;;;0.30;0.30;;;22.80;53.80;;;;;;6218290;28;20132;-68
2022/07/30 10:50:27;;;;;;;0.43;0.40;;;22.80;53.80;;;;;;6245201;28;20022;-68
2022/07/30 10:53:34;;;;;;;0.30;0.30;;;22.80;53.80;;;;;;6241243;28;20523;-68
2022/07/30 10:56:35;;;;;;;0.40;0.40;;;22.80;53.80;;;;;;6241196;28;20108;-67
2022/07/30 10:59:54;;;;;;;0.20;0.20;;;22.80;53.80;;;;;;6235901;28;20326;-68
2022/07/30 11:03:11;;;;;;;0.57;0.38;;;22.80;53.80;;;;;;6218566;28;20144;-68
2022/07/30 11:06:15;;;;;;;0.38;0.38;;;22.80;53.80;;;;;;6252427;28;20064;-67
2022/07/30 11:09:38;;;;;;;0.30;0.30;;;22.80;53.80;;;;;;6239684;28;20032;-68
2022/07/30 11:12:41;;;;;;;0.30;0.30;;;22.80;53.90;;;;;;6218493;28;20037;-67
2022/07/30 11:15:57;;;;;;;0.52;0.30;;;22.80;53.90;;;;;;6230086;28;20112;-67
2022/07/30 11:19:15;;;;;;;0.52;0.43;;;22.80;53.90;;;;;;6242254;28;20041;-68
2022/07/30 11:22:30;;;;;;;0.30;0.30;;;22.80;53.90;;;;;;6193327;28;20080;-67
2022/07/30 11:25:31;;;;;;;0.30;0.30;;;22.80;53.90;;;;;;6214764;28;20048;-68
2022/07/30 11:28:36;;;;;;;0.40;0.40;;;22.80;53.90;;;;;;6241827;28;20555;-67
2022/07/30 11:31:37;;;;;;;1.00;0.50;;;22.80;53.90;;;;;;6221596;28;20022;-68
2022/07/30 11:34:38;;;;;;;0.40;0.30;;;22.80;53.90;;;;;;6216024;28;20477;-67
2022/07/30 11:38:00;;;;;;;0.20;0.20;;;22.80;53.90;;;;;;6217636;28;20032;-68
2022/07/30 11:41:01;;;;;;;0.40;0.40;;;22.80;53.90;;;;;;6230046;28;20033;-69
2022/07/30 11:44:24;;;;;;;0.30;0.30;;;22.80;53.90;;;;;;6240487;28;20064;-67
2022/07/30 11:47:27;;;;;;;0.45;0.38;;;22.80;53.90;;;;;;6218252;28;20437;-68
2022/07/30 11:50:31;;;;;;;0.22;0.22;;;22.80;53.90;;;;;;6222772;28;20033;-67
2022/07/30 11:53:32;;;;;;;0.30;0.30;;;22.80;53.90;;;;;;6239031;28;20021;-68
2022/07/30 11:56:33;;;;;;;0.40;0.38;;;22.80;53.90;;;;;;6222244;28;20041;-67
2022/07/30 11:59:55;;;;;;;0.30;0.30;;;22.80;53.90;;;;;;6239219;28;20026;-67
2022/07/30 12:02:55;;;;;;;0.32;0.30;;;22.80;53.90;;;;;;6192884;28;20021;-68
2022/07/30 12:06:05;;;;;;;0.50;0.40;;;22.80;53.90;;;;;;6209340;28;20484;-67
2022/07/30 12:09:06;;;;;;;0.40;0.40;;;22.80;53.90;;;;;;6236446;28;20028;-67
2022/07/30 12:12:23;;;;;;;0.30;0.30;;;22.80;53.90;;;;;;6218779;28;20022;-67
2022/07/30 12:15:29;;;;;;;0.20;0.20;;;22.80;53.90;;;;;;6220226;28;20107;-67
2022/07/30 12:18:30;;;;;;;0.30;0.30;;;22.80;53.90;;;;;;6242440;28;20049;-68
2022/07/30 12:21:31;;;;;;;1.52;0.57;;;22.80;53.90;;;;;;6230323;28;20044;-67
2022/07/30 12:24:32;;;;;;;0.30;0.28;;;22.80;53.90;;;;;;6217360;28;20058;-68
2022/07/30 12:27:33;;;;;;;0.40;0.28;;;22.80;53.90;;;;;;6236396;28;20395;-68
2022/07/30 12:30:36;;;;;;;0.30;0.30;;;22.80;53.90;;;;;;6238446;28;20025;-68
2022/07/30 12:33:37;;;;;;;0.30;0.30;;;22.80;53.90;;;;;;6215897;28;20101;-67
2022/07/30 12:36:38;;;;;;;0.30;0.30;;;22.80;53.90;;;;;;6216325;28;20049;-67
2022/07/30 12:39:38;;;;;;;0.25;0.25;;;22.80;53.90;;;;;;6214665;28;20203;-67
2022/07/30 12:42:52;;;;;;;0.30;0.30;;;22.80;53.90;;;;;;6234662;28;20062;-67
2022/07/30 12:45:58;;;;;;;0.40;0.38;;;22.80;53.90;;;;;;6237457;28;20077;-68
2022/07/30 12:49:01;;;;;;;0.40;0.40;;;22.80;53.90;;;;;;6215933;28;20057;-68
2022/07/30 12:52:02;;;;;;;0.30;0.30;;;22.80;53.90;;;;;;6227698;28;20104;-67
2022/07/30 12:55:10;;;;;;;0.30;0.30;;;22.80;53.90;;;;;;6225479;28;20488;-67
2022/07/30 12:58:10;;;;;;;0.30;0.30;;;22.80;53.90;;;;;;6233836;28;20496;-68
2022/07/30 13:01:12;;;;;;;0.25;0.25;;;22.80;53.90;;;;;;6237282;28;20045;-68
2022/07/30 13:04:13;;;;;;;0.30;0.30;;;22.80;54.00;;;;;;6215745;28;20026;-68
2022/07/30 13:07:15;;;;;;;0.43;0.30;;;22.80;54.00;;;;;;6227052;28;20022;-68
2022/07/30 13:10:17;;;;;;;0.30;0.30;;;22.80;53.90;;;;;;6239767;28;20028;-68
2022/07/30 13:13:18;;;;;;;0.30;0.30;;;22.80;54.00;;;;;;6220627;28;20476;-67
2022/07/30 13:16:19;;;;;;;0.20;0.20;;;22.80;54.00;;;;;;6216607;28;20125;-67
2022/07/30 13:19:20;;;;;;;0.50;0.50;;;22.80;53.90;;;;;;6239660;28;20076;-68
2022/07/30 13:22:21;;;;;;;0.20;0.20;;;22.80;54.00;;;;;;6230212;28;20042;-67
2022/07/30 13:25:21;;;;;;;0.30;0.30;;;22.80;54.00;;;;;;6215264;28;20049;-67
2022/07/30 13:28:22;;;;;;;0.30;0.30;;;22.80;54.00;;;;;;6215537;28;20347;-68
2022/07/30 13:31:24;;;;;;;0.32;0.32;;;22.80;54.00;;;;;;6214215;28;20029;-67
2022/07/30 13:34:25;;;;;;;0.30;0.30;;;22.80;54.00;;;;;;6220076;28;20040;-67
2022/07/30 13:37:26;;;;;;;0.30;0.30;;;22.80;54.00;;;;;;6228804;28;20022;-68
2022/07/30 13:40:30;;;;;;;0.20;0.20;;;22.80;54.00;;;;;;6243947;28;20399;-67
2022/07/30 13:43:31;;;;;;;0.32;0.32;;;22.80;54.00;;;;;;6227062;28;20507;-67
2022/07/30 13:46:32;;;;;;;0.20;0.20;;;22.80;54.00;;;;;;6219809;28;20030;-67
2022/07/30 13:49:42;;;;;;;0.38;0.38;;;22.80;54.00;;;;;;6244452;28;20021;-68
2022/07/30 13:52:44;;;;;;;0.20;0.20;;;22.80;54.00;;;;;;6236255;28;20026;-67
2022/07/30 13:55:45;;;;;;;0.35;0.35;;;22.80;54.00;;;;;;6220293;28;20123;-67
2022/07/30 13:58:46;;;;;;;0.20;0.20;;;22.80;54.00;;;;;;6236596;28;20133;-67
2022/07/30 14:01:47;;;;;;;0.40;0.40;;;22.80;54.10;;;;;;6244904;28;20079;-68
2022/07/30 14:04:48;;;;;;;0.45;0.30;;;22.80;54.10;;;;;;6219770;28;20026;-67
2022/07/30 14:07:48;;;;;;;0.63;0.50;;;22.80;54.00;;;;;;6227369;28;20018;-67
2022/07/30 14:10:49;;;;;;;0.20;0.20;;;22.80;54.10;;;;;;6244299;28;20022;-66
2022/07/30 14:13:50;;;;;;;0.40;0.40;;;22.80;54.10;;;;;;6228958;28;20045;-67
2022/07/30 14:16:51;;;;;;;0.30;0.30;;;22.80;54.10;;;;;;6218310;28;20125;-67
2022/07/30 14:19:54;;;;;;;0.32;0.32;;;22.80;54.10;;;;;;6241955;28;20045;-67
2022/07/30 14:22:55;;;;;;;0.30;0.30;;;22.80;54.10;;;;;;6237620;28;20046;-67
2022/07/30 14:25:56;;;;;;;0.40;0.40;;;22.80;54.10;;;;;;6218100;28;20037;-67
2022/07/30 14:28:57;;;;;;;0.20;0.20;;;22.80;54.10;;;;;;6233081;28;20529;-68
2022/07/30 14:31:57;;;;;;;0.17;0.17;;;22.80;54.10;;;;;;6235333;28;20092;-68
2022/07/30 14:34:58;;;;;;;0.30;0.30;;;22.80;54.10;;;;;;6219130;28;20034;-68
2022/07/30 14:37:58;;;;;;;0.20;0.20;;;22.80;54.10;;;;;;6223976;28;20491;-68
2022/07/30 14:40:59;;;;;;;0.20;0.20;;;22.80;54.10;;;;;;6243180;28;20489;-68
2022/07/30 14:44:00;;;;;;;0.25;0.20;;;22.80;54.10;;;;;;6230197;28;20515;-67
2022/07/30 14:47:00;;;;;;;0.20;0.20;;;22.80;54.10;;;;;;6220254;28;20029;-68
2022/07/30 14:50:01;;;;;;;0.30;0.30;;;22.80;54.10;;;;;;6238580;28;20052;-67
2022/07/30 14:53:02;;;;;;;0.20;0.20;;;22.80;54.10;;;;;;6240437;28;20076;-67
2022/07/30 14:56:03;;;;;;;0.30;0.30;;;22.80;54.10;;;;;;6218212;28;20385;-68
2022/07/30 14:59:03;;;;;;;0.20;0.20;;;22.80;54.10;;;;;;6228997;28;20029;-67
2022/07/30 15:02:04;;;;;;;0.20;0.20;;;22.80;54.10;;;;;;6242875;28;20349;-67
2022/07/30 15:05:06;;;;;;;0.20;0.20;;;22.80;54.10;;;;;;6224168;28;20021;-68
2022/07/30 15:08:06;;;;;;;0.22;0.22;;;22.80;54.10;;;;;;6219713;28;20022;-68
2022/07/30 15:11:07;;;;;;;0.20;0.20;;;22.80;54.10;;;;;;6242718;28;20053;-67
2022/07/30 15:14:08;;;;;;;0.20;0.20;;;22.80;54.10;;;;;;6232793;28;20524;-66
2022/07/30 15:17:09;;;;;;;0.68;0.30;;;22.80;54.20;;;;;;6218294;28;20101;-67
2022/07/30 15:20:11;;;;;;;0.20;0.20;;;22.80;54.10;;;;;;6234180;28;20447;-66
2022/07/30 15:23:11;;;;;;;0.25;0.25;;;22.80;54.20;;;;;;6242063;28;20389;-67
2022/07/30 15:26:12;;;;;;;0.40;0.30;;;22.80;54.20;;;;;;6216990;28;20370;-67
2022/07/30 15:29:12;;;;;;;0.20;0.20;;;22.80;54.20;;;;;;6217953;28;20080;-67
2022/07/30 15:32:14;;;;;;;0.20;0.20;;;22.80;54.10;;;;;;6216995;28;20112;-68
2022/07/30 15:35:15;;;;;;;0.20;0.20;;;22.80;54.10;;;;;;6216602;28;20018;-67
2022/07/30 15:38:16;;;;;;;0.35;0.30;;;22.80;54.10;;;;;;6218639;28;20033;-67
2022/07/30 15:41:16;;;;;;;0.28;0.28;;;22.80;54.20;;;;;;6240618;28;20029;-68
2022/07/30 15:44:18;;;;;;;0.30;0.30;;;22.80;54.20;;;;;;6235277;28;20025;-68
2022/07/30 15:47:18;;;;;;;0.30;0.30;;;22.80;54.20;;;;;;6217287;28;20087;-68
2022/07/30 15:50:19;;;;;;;0.30;0.30;;;22.80;54.20;;;;;;6231555;28;20029;-68
2022/07/30 15:53:19;;;;;;;0.30;0.30;;;22.80;54.20;;;;;;6241226;28;20029;-68
2022/07/30 15:56:20;;;;;;;0.28;0.28;;;22.80;54.20;;;;;;6235608;28;20026;-67
2022/07/30 15:59:21;;;;;;;0.30;0.30;;;22.80;54.20;;;;;;6236927;28;20087;-67